Time,TemperatureF,DewpointF,PressureIn,WindDirection,WindDirectionDegrees,WindSpeedMPH,WindSpeedGustMPH,Humidity,HourlyPrecipIn,Conditions,Clouds,dailyrainin,SoftwareType,DateUTC
2013-07-31 00:07:00,65.8,62.0,29.78,SW,220,0.0,0.0,87,0.00,,,0.00,weatherlink.com 1.10,2013-07-31 07:07:00,
2013-07-31 00:22:00,65.4,62.0,29.78,SW,220,0.0,0.0,88,0.00,,,0.00,weatherlink.com 1.10,2013-07-31 07:22:00,
2013-07-31 00:37:00,65.0,61.0,29.78,SW,220,0.0,0.0,88,0.00,,,0.00,weatherlink.com 1.10,2013-07-31 07:37:00,
2013-07-31 00:52:00,64.7,62.0,29.78,SW,220,0.0,0.0,89,0.00,,,0.00,weatherlink.com 1.10,2013-07-31 07:52:00,
2013-07-31 01:07:00,64.4,62.0,29.77,SW,220,0.0,0.0,90,0.00,,,0.00,weatherlink.com 1.10,2013-07-31 08:07:00,
2013-07-31 01:22:00,64.1,62.0,29.78,SW,220,1.0,1.0,91,0.00,,,0.00,weatherlink.com 1.10,2013-07-31 08:22:00,
2013-07-31 01:37:00,63.8,61.0,29.78,SW,220,0.0,1.0,91,0.00,,,0.00,weatherlink.com 1.10,2013-07-31 08:37:00,
2013-07-31 01:52:00,63.5,61.0,29.77,SW,220,0.0,0.0,92,0.00,,,0.00,weatherlink.com 1.10,2013-07-31 08:52:00,
2013-07-31 02:07:00,63.2,61.0,29.77,SW,220,0.0,0.0,92,0.00,,,0.00,weatherlink.com 1.10,2013-07-31 09:07:00,
2013-07-31 02:22:00,63.0,61.0,29.77,SW,220,0.0,0.0,93,0.00,,,0.00,weatherlink.com 1.10,2013-07-31 09:22:00,
2013-07-31 02:37:00,62.7,61.0,29.77,SW,220,0.0,0.0,93,0.00,,,0.00,weatherlink.com 1.10,2013-07-31 09:37:00,
2013-07-31 02:52:00,62.4,60.0,29.77,SW,220,0.0,0.0,93,0.00,,,0.00,weatherlink.com 1.10,2013-07-31 09:52:00,
2013-07-31 03:07:00,62.2,61.0,29.77,SW,220,0.0,0.0,94,0.00,,,0.00,weatherlink.com 1.10,2013-07-31 10:07:00,
2013-07-31 03:22:00,62.0,60.0,29.77,SW,220,0.0,0.0,94,0.00,,,0.00,weatherlink.com 1.10,2013-07-31 10:22:00,
2013-07-31 03:37:00,61.9,60.0,29.77,SW,220,0.0,0.0,94,0.00,,,0.00,weatherlink.com 1.10,2013-07-31 10:37:00,
2013-07-31 03:52:00,61.7,60.0,29.77,SW,220,0.0,1.0,94,0.00,,,0.00,weatherlink.com 1.10,2013-07-31 10:52:00,
2013-07-31 04:07:00,61.5,60.0,29.78,SW,220,0.0,0.0,94,0.00,,,0.00,weatherlink.com 1.10,2013-07-31 11:07:00,
2013-07-31 04:22:00,61.4,60.0,29.78,SW,220,0.0,1.0,95,0.00,,,0.00,weatherlink.com 1.10,2013-07-31 11:22:00,
2013-07-31 04:37:00,61.3,60.0,29.79,SW,220,0.0,0.0,95,0.00,,,0.00,weatherlink.com 1.10,2013-07-31 11:37:00,
2013-07-31 04:52:00,61.6,61.0,29.79,SW,220,0.0,1.0,96,0.00,,,0.00,weatherlink.com 1.10,2013-07-31 11:52:00,
2013-07-31 05:07:00,62.0,61.0,29.80,SW,220,0.0,0.0,96,0.00,,,0.00,weatherlink.com 1.10,2013-07-31 12:07:00,
2013-07-31 05:22:00,62.5,61.0,29.80,SW,220,0.0,0.0,96,0.00,,,0.00,weatherlink.com 1.10,2013-07-31 12:22:00,
2013-07-31 05:37:00,63.0,61.0,29.81,SW,220,0.0,1.0,93,0.00,,,0.00,weatherlink.com 1.10,2013-07-31 12:37:00,
2013-07-31 05:52:00,63.5,61.0,29.81,SW,220,0.0,0.0,91,0.00,,,0.00,weatherlink.com 1.10,2013-07-31 12:52:00,
2013-07-31 06:07:00,64.0,61.0,29.81,SW,220,0.0,0.0,90,0.00,,,0.00,weatherlink.com 1.10,2013-07-31 13:07:00,
2013-07-31 06:22:00,65.1,63.0,29.81,SW,220,0.0,0.0,91,0.00,,,0.00,weatherlink.com 1.10,2013-07-31 13:22:00,
2013-07-31 06:37:00,66.5,63.0,29.81,SW,220,0.0,0.0,89,0.00,,,0.00,weatherlink.com 1.10,2013-07-31 13:37:00,
2013-07-31 06:52:00,69.1,64.0,29.81,SW,220,0.0,2.0,84,0.00,,,0.00,weatherlink.com 1.10,2013-07-31 13:52:00,
2013-07-31 07:07:00,70.6,65.0,29.81,SW,220,0.0,0.0,83,0.00,,,0.00,weatherlink.com 1.10,2013-07-31 14:07:00,
2013-07-31 07:22:00,71.0,65.0,29.81,SW,220,0.0,0.0,81,0.00,,,0.00,weatherlink.com 1.10,2013-07-31 14:22:00,
2013-07-31 07:38:00,71.5,67.0,29.82,SW,220,0.0,0.0,84,0.00,,,0.00,weatherlink.com 1.10,2013-07-31 14:38:00,
2013-07-31 07:53:00,73.1,67.0,29.82,SW,220,0.0,0.0,82,0.00,,,0.00,weatherlink.com 1.10,2013-07-31 14:53:00,
2013-07-31 08:08:00,74.6,65.0,29.82,SW,220,0.0,1.0,71,0.00,,,0.00,weatherlink.com 1.10,2013-07-31 15:08:00,
2013-07-31 08:23:00,76.3,63.0,29.82,West,263,0.0,2.0,63,0.00,,,0.00,weatherlink.com 1.10,2013-07-31 15:23:00,
2013-07-31 08:38:00,78.1,62.0,29.81,WNW,289,2.0,2.0,59,0.00,,,0.00,weatherlink.com 1.10,2013-07-31 15:38:00,
2013-07-31 08:53:00,80.9,62.0,29.81,WNW,288,0.0,1.0,52,0.00,,,0.00,weatherlink.com 1.10,2013-07-31 15:53:00,
2013-07-31 09:08:00,82.5,60.0,29.81,NNE,19,2.0,5.0,46,0.00,,,0.00,weatherlink.com 1.10,2013-07-31 16:08:00,
2013-07-31 09:23:00,82.8,60.0,29.81,NW,319,0.0,4.0,46,0.00,,,0.00,weatherlink.com 1.10,2013-07-31 16:23:00,
2013-07-31 09:38:00,84.9,60.0,29.81,NNE,17,5.0,7.0,43,0.00,,,0.00,weatherlink.com 1.10,2013-07-31 16:38:00,
2013-07-31 09:53:00,87.4,60.0,29.80,WNW,292,5.0,7.0,40,0.00,,,0.00,weatherlink.com 1.10,2013-07-31 16:53:00,
2013-07-31 10:08:00,88.9,62.0,29.80,WNW,300,3.0,7.0,41,0.00,,,0.00,weatherlink.com 1.10,2013-07-31 17:08:00,
2013-07-31 10:23:00,89.5,62.0,29.79,WNW,302,3.0,6.0,40,0.00,,,0.00,weatherlink.com 1.10,2013-07-31 17:23:00,
2013-07-31 10:38:00,90.8,62.0,29.79,NNW,328,4.0,5.0,38,0.00,,,0.00,weatherlink.com 1.10,2013-07-31 17:38:00,
2013-07-31 10:53:00,91.4,64.0,29.78,West,265,5.0,7.0,40,0.00,,,0.00,weatherlink.com 1.10,2013-07-31 17:53:00,
2013-07-31 11:08:00,92.7,59.0,29.77,NW,312,3.0,5.0,32,0.00,,,0.00,weatherlink.com 1.10,2013-07-31 18:08:00,
2013-07-31 11:23:00,94.1,59.0,29.77,WNW,303,3.0,6.0,31,0.00,,,0.00,weatherlink.com 1.10,2013-07-31 18:23:00,
2013-07-31 11:39:00,95.5,57.0,29.76,NNW,334,0.0,4.0,27,0.00,,,0.00,weatherlink.com 1.10,2013-07-31 18:39:00,
2013-07-31 11:54:00,96.4,53.0,29.75,ENE,78,2.0,4.0,23,0.00,,,0.00,weatherlink.com 1.10,2013-07-31 18:54:00,
2013-07-31 12:09:00,97.4,57.0,29.75,ESE,103,1.0,5.0,26,0.00,,,0.00,weatherlink.com 1.10,2013-07-31 19:09:00,
2013-07-31 12:24:00,98.8,57.0,29.74,SSE,155,0.0,3.0,25,0.00,,,0.00,weatherlink.com 1.10,2013-07-31 19:24:00,
2013-07-31 12:39:00,98.9,53.0,29.73,NNW,337,0.0,3.0,21,0.00,,,0.00,weatherlink.com 1.10,2013-07-31 19:39:00,
2013-07-31 12:54:00,99.1,56.0,29.73,NW,313,3.0,4.0,24,0.00,,,0.00,weatherlink.com 1.10,2013-07-31 19:54:00,
2013-07-31 13:09:00,99.1,56.0,29.72,WSW,245,3.0,5.0,24,0.00,,,0.00,weatherlink.com 1.10,2013-07-31 20:09:00,
2013-07-31 13:24:00,100.8,59.0,29.72,WNW,300,2.0,4.0,25,0.00,,,0.00,weatherlink.com 1.10,2013-07-31 20:24:00,
2013-07-31 13:39:00,100.5,58.0,29.71,NNW,330,3.0,4.0,24,0.00,,,0.00,weatherlink.com 1.10,2013-07-31 20:39:00,
2013-07-31 13:54:00,99.4,56.0,29.70,NNW,332,2.0,4.0,23,0.00,,,0.00,weatherlink.com 1.10,2013-07-31 20:54:00,
2013-07-31 14:09:00,99.4,61.0,29.69,West,259,2.0,5.0,28,0.00,,,0.00,weatherlink.com 1.10,2013-07-31 21:09:00,
2013-07-31 14:24:00,98.6,61.0,29.69,NW,306,1.0,3.0,29,0.00,,,0.00,weatherlink.com 1.10,2013-07-31 21:24:00,
2013-07-31 14:39:00,97.4,59.0,29.68,NW,312,0.0,4.0,28,0.00,,,0.00,weatherlink.com 1.10,2013-07-31 21:39:00,
2013-07-31 14:54:00,96.9,60.0,29.67,North,355,1.0,4.0,29,0.00,,,0.00,weatherlink.com 1.10,2013-07-31 21:54:00,
2013-07-31 15:09:00,97.3,60.0,29.66,North,360,2.0,4.0,29,0.00,,,0.00,weatherlink.com 1.10,2013-07-31 22:09:00,
2013-07-31 15:24:00,98.4,57.0,29.66,WNW,282,4.0,6.0,25,0.00,,,0.00,weatherlink.com 1.10,2013-07-31 22:24:00,
2013-07-31 15:39:00,97.8,61.0,29.65,NW,307,1.0,4.0,29,0.00,,,0.00,weatherlink.com 1.10,2013-07-31 22:39:00,
2013-07-31 15:54:00,96.5,60.0,29.65,NW,308,1.0,4.0,30,0.00,,,0.00,weatherlink.com 1.10,2013-07-31 22:54:00,
2013-07-31 16:09:00,94.4,59.0,29.65,West,270,3.0,6.0,31,0.00,,,0.00,weatherlink.com 1.10,2013-07-31 23:09:00,
2013-07-31 16:24:00,92.0,56.0,29.65,West,268,13.0,17.0,30,0.00,,,0.00,weatherlink.com 1.10,2013-07-31 23:24:00,
2013-07-31 16:39:00,93.9,59.0,29.64,NNW,327,2.0,12.0,31,0.00,,,0.00,weatherlink.com 1.10,2013-07-31 23:39:00,
2013-07-31 16:54:00,96.0,59.0,29.64,West,281,3.0,7.0,29,0.00,,,0.00,weatherlink.com 1.10,2013-07-31 23:54:00,
2013-07-31 17:09:00,96.9,61.0,29.63,NW,304,5.0,9.0,30,0.00,,,0.00,weatherlink.com 1.10,2013-08-01 00:09:00,
2013-07-31 17:24:00,96.1,62.0,29.63,North,355,3.0,10.0,32,0.00,,,0.00,weatherlink.com 1.10,2013-08-01 00:24:00,
2013-07-31 17:39:00,94.3,63.0,29.62,WNW,292,2.0,5.0,35,0.00,,,0.00,weatherlink.com 1.10,2013-08-01 00:39:00,
2013-07-31 17:54:00,94.5,60.0,29.62,WNW,302,1.0,9.0,32,0.00,,,0.00,weatherlink.com 1.10,2013-08-01 00:54:00,
2013-07-31 18:09:00,93.7,60.0,29.62,NW,319,1.0,6.0,32,0.00,,,0.00,weatherlink.com 1.10,2013-08-01 01:09:00,
2013-07-31 18:24:00,92.7,66.0,29.62,NW,307,0.0,1.0,42,0.00,,,0.00,weatherlink.com 1.10,2013-08-01 01:24:00,
2013-07-31 18:39:00,90.4,67.0,29.62,NW,307,1.0,1.0,46,0.00,,,0.00,weatherlink.com 1.10,2013-08-01 01:39:00,
2013-07-31 18:54:00,87.9,66.0,29.63,East,80,0.0,2.0,48,0.00,,,0.00,weatherlink.com 1.10,2013-08-01 01:54:00,
2013-07-31 19:09:00,85.9,66.0,29.63,East,80,0.0,0.0,51,0.00,,,0.00,weatherlink.com 1.10,2013-08-01 02:09:00,
2013-07-31 19:24:00,84.7,60.0,29.64,SE,138,3.0,11.0,44,0.00,,,0.00,weatherlink.com 1.10,2013-08-01 02:24:00,
2013-07-31 19:39:00,81.7,61.0,29.65,SSE,156,5.0,16.0,50,0.02,,,0.02,weatherlink.com 1.10,2013-08-01 02:39:00,
2013-07-31 19:54:00,78.9,61.0,29.65,North,355,3.0,11.0,55,0.07,,,0.07,weatherlink.com 1.10,2013-08-01 02:54:00,
2013-07-31 20:09:00,78.7,62.0,29.65,NNE,22,1.0,6.0,56,0.07,,,0.07,weatherlink.com 1.10,2013-08-01 03:09:00,
2013-07-31 20:24:00,77.6,65.0,29.68,SE,124,4.0,8.0,65,0.07,,,0.07,weatherlink.com 1.10,2013-08-01 03:24:00,
2013-07-31 20:39:00,78.6,62.0,29.69,East,79,3.0,9.0,56,0.05,,,0.07,weatherlink.com 1.10,2013-08-01 03:39:00,
2013-07-31 20:54:00,79.1,61.0,29.70,ESE,111,4.0,8.0,54,0.00,,,0.07,weatherlink.com 1.10,2013-08-01 03:54:00,
2013-07-31 21:09:00,79.5,61.0,29.71,SSE,165,0.0,9.0,53,0.00,,,0.07,weatherlink.com 1.10,2013-08-01 04:09:00,
2013-07-31 21:24:00,78.6,62.0,29.72,North,355,2.0,3.0,57,0.00,,,0.07,weatherlink.com 1.10,2013-08-01 04:24:00,
2013-07-31 21:39:00,77.9,62.0,29.72,NE,41,0.0,3.0,58,0.00,,,0.07,weatherlink.com 1.10,2013-08-01 04:39:00,
2013-07-31 21:54:00,76.7,63.0,29.73,NE,48,1.0,1.0,63,0.00,,,0.07,weatherlink.com 1.10,2013-08-01 04:54:00,
2013-07-31 22:09:00,75.2,63.0,29.72,NE,47,0.0,1.0,66,0.00,,,0.07,weatherlink.com 1.10,2013-08-01 05:09:00,
2013-07-31 22:24:00,74.3,65.0,29.73,NE,47,1.0,2.0,72,0.00,,,0.07,weatherlink.com 1.10,2013-08-01 05:24:00,
2013-07-31 22:39:00,73.6,66.0,29.72,NE,47,1.0,1.0,76,0.00,,,0.07,weatherlink.com 1.10,2013-08-01 05:39:00,
2013-07-31 22:54:00,73.1,66.0,29.72,NE,47,0.0,0.0,78,0.00,,,0.07,weatherlink.com 1.10,2013-08-01 05:54:00,
2013-07-31 23:09:00,72.4,66.0,29.72,NE,47,2.0,2.0,80,0.01,,,0.08,weatherlink.com 1.10,2013-08-01 06:09:00,
2013-07-31 23:24:00,72.0,66.0,29.71,NE,47,0.0,0.0,82,0.01,,,0.08,weatherlink.com 1.10,2013-08-01 06:24:00,
2013-07-31 23:39:00,71.7,67.0,29.71,NE,47,0.0,0.0,84,0.01,,,0.08,weatherlink.com 1.10,2013-08-01 06:39:00,
2013-07-31 23:55:00,71.2,63.0,29.71,ESE,114,2.0,5.0,76,0.01,,,0.08,weatherlink.com 1.10,2013-08-01 06:55:00,